createdAt,value
2017-03-25T00:01:55.153Z,6.54
2017-03-25T00:06:51.402Z,6.45
2017-03-25T00:11:47.887Z,6.31
2017-03-25T00:16:44.933Z,6.27
2017-03-25T00:21:41.460Z,6.04
2017-03-25T00:26:37.578Z,6.01
2017-03-25T00:31:34.273Z,5.83
2017-03-25T00:36:30.653Z,5.84
2017-03-25T00:41:27.034Z,5.84
2017-03-25T00:46:23.614Z,5.84
2017-03-25T00:51:19.901Z,5.86
2017-03-25T00:56:16.254Z,5.76
2017-03-25T01:01:12.610Z,5.79
2017-03-25T01:06:09.079Z,5.71
2017-03-25T01:11:05.775Z,5.69
2017-03-25T01:16:02.096Z,5.66
2017-03-25T01:20:58.414Z,5.57
2017-03-25T01:25:54.714Z,5.51
2017-03-25T01:30:51.075Z,5.38
2017-03-25T01:35:47.637Z,5.41
2017-03-25T01:40:43.976Z,5.35
2017-03-25T01:45:40.444Z,5.26
2017-03-25T01:50:36.976Z,5.29
2017-03-25T01:55:33.403Z,5.25
2017-03-25T02:00:29.704Z,5.21
2017-03-25T02:05:26.015Z,5.21
2017-03-25T02:10:22.650Z,5.25
2017-03-25T02:15:19.875Z,5.26
2017-03-25T02:20:16.159Z,5.15
2017-03-25T02:25:13.223Z,5.14
2017-03-25T02:30:09.517Z,5.04
2017-03-25T02:35:05.865Z,4.96
2017-03-25T02:40:02.447Z,4.96
2017-03-25T02:44:58.761Z,4.93
2017-03-25T02:49:55.220Z,4.94
2017-03-25T02:54:51.671Z,4.94
2017-03-25T02:59:48.026Z,4.78
2017-03-25T03:04:44.538Z,4.70
2017-03-25T03:09:40.776Z,4.67
2017-03-25T03:14:37.035Z,4.73
2017-03-25T03:19:33.242Z,4.67
2017-03-25T03:24:29.826Z,4.58
2017-03-25T03:29:26.280Z,4.48
2017-03-25T03:34:23.736Z,4.50
2017-03-25T03:39:20.205Z,4.49
2017-03-25T03:44:16.594Z,4.50
2017-03-25T03:49:13.052Z,4.42
2017-03-25T03:54:09.287Z,4.32
2017-03-25T03:59:06.472Z,4.35
2017-03-25T04:04:03.511Z,4.44
2017-03-25T04:08:59.727Z,4.35
2017-03-25T04:13:56.862Z,4.30
2017-03-25T04:18:53.989Z,4.20
2017-03-25T04:23:50.365Z,4.20
2017-03-25T04:28:46.701Z,4.22
2017-03-25T04:33:43.163Z,4.08
2017-03-25T04:38:39.548Z,4.20
2017-03-25T04:43:36.286Z,4.05
2017-03-25T04:48:33.523Z,4.17
2017-03-25T04:53:29.537Z,4.14
2017-03-25T04:58:25.821Z,3.96
2017-03-25T05:03:22.523Z,4.02
2017-03-25T05:08:18.762Z,4.08
2017-03-25T05:13:15.842Z,4.16
2017-03-25T05:18:12.107Z,4.22
2017-03-25T05:23:08.497Z,4.14
2017-03-25T05:28:05.249Z,4.14
2017-03-25T05:33:01.488Z,4.30
2017-03-25T05:37:57.927Z,4.32
2017-03-25T05:42:54.459Z,4.32
2017-03-25T05:47:51.423Z,4.38
2017-03-25T05:52:47.823Z,4.40
2017-03-25T05:57:44.494Z,4.37
2017-03-25T06:02:40.826Z,4.48
2017-03-25T06:07:37.441Z,4.49
2017-03-25T06:12:33.985Z,4.60
2017-03-25T06:17:30.644Z,4.71
2017-03-25T06:22:27.019Z,4.97
2017-03-25T06:27:24.466Z,5.20
2017-03-25T06:32:21.346Z,5.44
2017-03-25T06:37:17.862Z,5.72
2017-03-25T06:42:14.682Z,6.44
2017-03-25T06:47:11.306Z,6.79
2017-03-25T06:52:07.783Z,6.88
2017-03-25T06:57:04.799Z,7.63
2017-03-25T07:02:01.555Z,8.36
2017-03-25T07:06:58.999Z,8.28
2017-03-25T07:11:55.887Z,8.49
2017-03-25T07:16:52.191Z,8.08
2017-03-25T07:21:49.898Z,7.13
2017-03-25T07:26:46.032Z,7.15
2017-03-25T07:31:42.435Z,8.31
2017-03-25T07:36:40.513Z,8.81
2017-03-25T07:41:38.134Z,8.95
2017-03-25T07:46:35.204Z,9.72
2017-03-25T07:51:31.887Z,10.15
2017-03-25T07:56:29.197Z,11.73
2017-03-25T08:01:26.590Z,12.73
2017-03-25T08:06:24.143Z,12.21
2017-03-25T08:11:20.730Z,11.69
2017-03-25T08:16:17.318Z,11.83
2017-03-25T08:21:14.663Z,12.15
2017-03-25T08:26:11.329Z,12.80
2017-03-25T08:31:08.045Z,11.59
2017-03-25T08:36:04.375Z,11.29
2017-03-25T08:41:01.208Z,11.54
2017-03-25T08:45:57.333Z,11.00
2017-03-25T08:50:53.504Z,11.00
2017-03-25T08:55:49.887Z,11.30
2017-03-25T09:00:46.701Z,11.19
2017-03-25T09:05:43.181Z,11.59
2017-03-25T09:10:39.720Z,11.50
2017-03-25T09:15:36.602Z,11.25
2017-03-25T09:20:33.133Z,11.72
2017-03-25T09:25:29.745Z,12.17
2017-03-25T09:30:26.992Z,12.68
2017-03-25T09:35:23.652Z,12.29
2017-03-25T09:40:20.295Z,12.90
2017-03-25T09:45:17.172Z,13.04
2017-03-25T09:50:14.851Z,12.78
2017-03-25T09:55:11.603Z,12.98
2017-03-25T10:00:08.242Z,14.00
2017-03-25T10:05:05.522Z,13.67
2017-03-25T10:10:02.231Z,13.50
2017-03-25T10:14:59.479Z,13.78
2017-03-25T10:19:56.165Z,13.47
2017-03-25T10:24:52.825Z,13.38
2017-03-25T10:29:49.098Z,13.41
2017-03-25T10:34:46.584Z,14.79
2017-03-25T10:39:44.580Z,14.07
2017-03-25T10:44:40.576Z,13.46
2017-03-25T10:49:36.254Z,13.13
2017-03-25T10:54:33.022Z,14.00
2017-03-25T10:59:31.114Z,15.24
2017-03-25T11:04:28.465Z,15.06
2017-03-25T11:09:26.052Z,15.59
2017-03-25T11:14:25.745Z,16.46
2017-03-25T11:19:23.217Z,17.38
2017-03-25T11:24:23.378Z,16.97
2017-03-25T11:29:19.854Z,19.11
2017-03-25T11:34:16.695Z,17.22
2017-03-25T11:39:13.608Z,17.12
2017-03-25T11:44:10.231Z,16.36
2017-03-25T11:49:07.076Z,15.95
2017-03-25T11:54:04.088Z,17.45
2017-03-25T11:59:01.293Z,17.29
2017-03-25T12:03:57.933Z,17.24
2017-03-25T12:13:56.041Z,17.02
2017-03-25T12:18:58.092Z,18.53
2017-03-25T12:23:53.845Z,18.55
2017-03-25T12:28:51.748Z,17.89
2017-03-25T12:33:51.045Z,16.90
2017-03-25T12:38:46.069Z,16.71
2017-03-25T12:43:41.627Z,17.20
2017-03-25T12:48:38.348Z,16.66
2017-03-25T12:53:33.138Z,15.57
2017-03-25T12:58:28.024Z,14.85
2017-03-25T13:03:24.537Z,15.54
2017-03-25T13:08:21.329Z,15.92
2017-03-25T13:13:18.136Z,15.21
2017-03-25T13:18:14.682Z,15.86
2017-03-25T13:23:13.075Z,15.42
2017-03-25T13:28:11.181Z,15.77
2017-03-25T13:33:07.723Z,17.19
2017-03-25T13:38:04.797Z,15.73
2017-03-25T13:43:00.133Z,15.58
2017-03-25T13:47:55.672Z,14.85
2017-03-25T13:52:52.134Z,15.22
2017-03-25T13:57:49.292Z,15.22
2017-03-25T14:02:45.979Z,15.94
2017-03-25T14:07:42.711Z,15.84
2017-03-25T14:12:40.003Z,15.82
2017-03-25T14:17:36.702Z,15.40
2017-03-25T14:22:33.793Z,15.39
2017-03-25T14:27:29.807Z,14.92
2017-03-25T14:32:26.060Z,15.10
2017-03-25T14:37:23.874Z,15.43
2017-03-25T14:42:20.078Z,15.17
2017-03-25T14:47:16.975Z,15.27
2017-03-25T14:52:13.581Z,15.31
2017-03-25T14:57:10.137Z,15.65
2017-03-25T15:02:06.302Z,14.89
2017-03-25T15:07:02.217Z,14.78
2017-03-25T15:11:58.163Z,14.51
2017-03-25T15:16:54.268Z,14.08
2017-03-25T15:21:50.444Z,13.85
2017-03-25T15:26:46.846Z,13.87
2017-03-25T15:31:43.161Z,13.93
2017-03-25T15:36:39.646Z,13.68
2017-03-25T15:41:36.417Z,13.70
2017-03-25T15:46:32.641Z,13.71
2017-03-25T15:51:29.236Z,13.53
2017-03-25T15:56:27.836Z,13.39
2017-03-25T16:01:23.959Z,13.49
2017-03-25T16:06:20.552Z,13.37
2017-03-25T16:11:17.382Z,13.44
2017-03-25T16:16:14.282Z,13.49
2017-03-25T16:21:10.238Z,13.13
2017-03-25T16:26:06.716Z,13.23
2017-03-25T16:31:05.912Z,13.16
2017-03-25T16:36:01.721Z,13.19
2017-03-25T16:40:58.208Z,13.08
2017-03-25T16:45:54.632Z,12.97
2017-03-25T16:50:51.297Z,12.86
2017-03-25T16:55:47.885Z,12.79
2017-03-25T17:00:44.539Z,12.85
2017-03-25T17:05:41.527Z,12.68
2017-03-25T17:10:37.941Z,12.57
2017-03-25T17:15:34.238Z,12.40
2017-03-25T17:20:30.497Z,12.37
2017-03-25T17:25:26.951Z,12.32
2017-03-25T17:30:23.400Z,12.18
2017-03-25T17:35:20.857Z,12.02
2017-03-25T17:40:17.214Z,11.86
2017-03-25T17:45:13.507Z,11.72
2017-03-25T17:50:10.487Z,11.54
2017-03-25T17:55:06.901Z,11.33
2017-03-25T18:00:03.312Z,11.35
2017-03-25T18:04:59.610Z,11.44
2017-03-25T18:09:55.993Z,11.29
2017-03-25T18:14:52.540Z,11.10
2017-03-25T18:19:48.957Z,11.05
2017-03-25T18:24:45.410Z,10.92
2017-03-25T18:29:41.472Z,10.84
2017-03-25T18:34:37.917Z,10.86
2017-03-25T18:39:34.685Z,10.76
2017-03-25T18:44:31.511Z,10.75
2017-03-25T18:49:27.705Z,10.69
2017-03-25T18:54:24.036Z,10.57
2017-03-25T18:59:20.321Z,10.56
2017-03-25T19:04:19.565Z,10.33
2017-03-25T19:09:15.324Z,10.19
2017-03-25T19:14:12.106Z,10.10
2017-03-25T19:19:08.455Z,10.02
2017-03-25T19:24:04.802Z,10.01
2017-03-25T19:29:01.330Z,9.92
2017-03-25T19:33:58.031Z,9.92
2017-03-25T19:38:55.687Z,9.84
2017-03-25T19:43:51.777Z,9.82
2017-03-25T19:48:49.208Z,9.69
2017-03-25T19:53:45.412Z,9.56
2017-03-25T19:58:41.833Z,9.47
2017-03-25T20:03:38.032Z,9.41
2017-03-25T20:08:34.395Z,9.37
2017-03-25T20:13:30.569Z,9.31
2017-03-25T20:18:27.794Z,9.16
2017-03-25T20:23:24.155Z,9.08
2017-03-25T20:28:20.723Z,9.04
2017-03-25T20:33:17.340Z,9.00
2017-03-25T20:38:14.879Z,8.89
2017-03-25T20:43:11.055Z,8.71
2017-03-25T20:48:07.337Z,8.71
2017-03-25T20:53:03.795Z,8.58
2017-03-25T20:58:00.013Z,8.53
2017-03-25T21:02:56.688Z,8.33
2017-03-25T21:07:52.995Z,8.33
2017-03-25T21:12:49.340Z,8.33
2017-03-25T21:17:45.761Z,8.24
2017-03-25T21:22:42.281Z,8.09
2017-03-25T21:27:38.778Z,8.10
2017-03-25T21:32:37.581Z,8.00
2017-03-25T21:37:33.219Z,7.94
2017-03-25T21:42:29.625Z,7.82
2017-03-25T21:47:26.198Z,7.69
2017-03-25T21:52:22.573Z,7.56
2017-03-25T21:57:19.094Z,7.54
2017-03-25T22:02:16.343Z,7.42
2017-03-25T22:07:13.253Z,7.40
2017-03-25T22:12:09.535Z,7.31
2017-03-25T22:17:06.611Z,7.25
2017-03-25T22:22:03.804Z,7.15
2017-03-25T22:27:00.393Z,7.15
2017-03-25T22:31:56.801Z,7.13
2017-03-25T22:36:53.023Z,7.06
2017-03-25T22:41:49.535Z,7.03
2017-03-25T22:46:45.729Z,6.99
2017-03-25T22:51:42.298Z,6.97
2017-03-25T22:56:38.652Z,6.81
2017-03-25T23:01:35.616Z,6.82
2017-03-25T23:06:32.565Z,6.72
2017-03-25T23:11:29.688Z,6.67
2017-03-25T23:16:27.187Z,6.69
2017-03-25T23:21:23.545Z,6.57
2017-03-25T23:26:19.841Z,6.63
2017-03-25T23:31:16.148Z,6.45
2017-03-25T23:36:12.505Z,6.42
2017-03-25T23:41:09.045Z,6.39
2017-03-25T23:46:05.224Z,6.35
2017-03-25T23:51:01.467Z,6.33
2017-03-25T23:55:59.149Z,6.24
